Yuma, Arizona
Current Conditions -  °F | °C
As of 12:57 PM on Friday 24 Oct 2014 (Local Time) from KNYL Reporting Station
Clear Clear  
Wind Chill: 95°   Ceiling: Unl
Heat Index: 95°   Visibility: 10mi
Dew Point: 39°   Wind: 0mph
Humidity: 14%   Direction: NA
Pressure: 29.93"   Gusts: NA
Location:  32.68°N, 114.62°W
Report Text: KNYL 241957Z 00000KT 10SM CLR 35/04 A2993 RMK AO2 SLP133 T03500039
Loading
Personal Weather Stations






























Interactive Weather Map
Tropical Storm Tracking
New forecast layout! Learn more

10-Day Weather Forecast

Advertisements
Track Severe Weather on mobile